Bob Baker Memorial Airport Kiana US
ICAO: PAIK
IATA:
Category: Medium
Scheduled Services:

Elevation: 166 ft
TransAlt. 18000 ft.

Airport Communications:
ANCHORAGE CNTR:119.2
CTAF:122.7

PAIK Zoom In..

Runways:

(A) RW 06 length 3400 ft width 100 ft
---- / hdg 64

(B) RW 24 length 3400 ft width 100 ft
---- / hdg 244

Location; PAIK
Day. 25 / Time. 09.56 Zulu
* Altimeter: 29.38
* Temperature: 00° c. 32°f.
* Wind from: 110° Speed 05 kn.
Dewpoint: -01° c.
Visibility: 10 Statute Miles.
Clouds: Few 6500 ft.
Clouds: Scattered 11000 ft.

PAIK 250956Z AUTO 11005KT 10SM FEW065 SCT110 00/M01 A2938 RMK AO2 SLP953 T00001006 FZRANO


Wind From 110°
Speed 05 kn.

  YouTube Music Video
 
jpsmedia.com for Web Design  worldairports.se 2018   terms of use